Time;durP1;ratioP1;P1;durP2;ratioP2;P2;SDS_P1;SDS_P2;PMS_P1;PMS_P2;Temp;Humidity;BMP_temperature;BMP_pressure;BME280_temperature;BME280_humidity;BME280_pressure;Samples;Min_cycle;Max_cycle;Signal;HPM_P1;HPM_P2
2022/01/30 00:02:34;;;;;;;2.25;2.03;;;4.00;99.90;;;;;;6344139;22;20031;-90
2022/01/30 00:05:27;;;;;;;2.47;2.17;;;4.00;99.90;;;;;;6344224;22;20018;-86
2022/01/30 00:08:18;;;;;;;2.72;2.10;;;4.00;99.90;;;;;;6340667;22;20076;-88
2022/01/30 00:11:40;;;;;;;2.92;2.40;;;4.00;99.90;;;;;;6341744;22;20082;-89
2022/01/30 00:14:53;;;;;;;2.47;2.28;;;4.00;99.90;;;;;;6342024;22;20076;-90
2022/01/30 00:18:24;;;;;;;;;;;;;;;;;;;;;
2022/01/30 00:25:12;;;;;;;11.18;3.60;;;4.10;99.90;;;;;;6247927;23;20031;-88
2022/01/30 00:31:54;;;;;;;3.22;2.10;;;4.20;99.90;;;;;;6218333;23;20461;-90
2022/01/30 00:35:15;;;;;;;;;;;;;;;;;;;;;
2022/01/30 00:52:16;;;;;;;;;;;;;;;;;;;;;
2022/01/30 00:55:06;;;;;;;2.03;1.90;;;4.30;99.90;;;;;;6033412;23;20024;-91
2022/01/30 00:58:24;;;;;;;2.70;2.50;;;4.40;99.90;;;;;;6053755;23;20023;-89
2022/01/30 01:01:58;;;;;;;4.45;2.30;;;4.50;99.90;;;;;;5903531;24;20033;-89
2022/01/30 01:08:53;;;;;;;3.53;2.80;;;4.50;99.90;;;;;;5869981;24;20042;-84
2022/01/30 01:40:16;;;;;;;;;;;;;;;;;;;;;
2022/01/30 01:43:42;;;;;;;;;;;;;;;;;;;;;
2022/01/30 01:47:49;;;;;;;;;;;;;;;;;;;;;
2022/01/30 02:26:12;;;;;;;6.43;4.78;;;4.20;99.90;;;;;;6200484;23;20028;-90
2022/01/30 02:28:59;;;;;;;6.80;5.25;;;4.20;99.90;;;;;;6213446;23;20072;-88
2022/01/30 02:31:55;;;;;;;6.38;5.15;;;4.20;99.90;;;;;;6214192;23;20016;-87
2022/01/30 02:35:04;;;;;;;6.60;5.05;;;4.20;99.90;;;;;;6175365;23;20021;-89
2022/01/30 02:38:30;;;;;;;6.85;5.30;;;4.20;99.90;;;;;;6203215;23;20052;-90
2022/01/30 02:41:39;;;;;;;6.78;5.07;;;4.20;99.90;;;;;;6199804;23;20025;-90
2022/01/30 02:44:40;;;;;;;9.40;6.20;;;4.20;99.90;;;;;;6173017;23;20103;-89
2022/01/30 02:54:13;;;;;;;;;;;;;;;;;;;;;
2022/01/30 02:57:32;;;;;;;7.88;5.95;;;4.20;99.90;;;;;;6194511;23;20052;-89
2022/01/30 03:00:44;;;;;;;7.90;6.35;;;4.20;99.90;;;;;;6195953;23;20028;-88
2022/01/30 03:03:32;;;;;;;8.67;6.73;;;4.20;99.90;;;;;;6172077;23;20302;-89
2022/01/30 03:06:27;;;;;;;9.13;5.72;;;4.20;99.90;;;;;;6192099;23;20430;-89
2022/01/30 03:09:38;;;;;;;7.85;6.03;;;4.20;99.90;;;;;;6190223;23;20040;-90
2022/01/30 03:12:30;;;;;;;9.05;6.32;;;4.20;99.90;;;;;;6191591;23;20035;-90
2022/01/30 03:15:32;;;;;;;7.22;5.78;;;4.20;99.90;;;;;;6168809;23;20036;-90
2022/01/30 03:18:22;;;;;;;7.90;6.00;;;4.20;99.90;;;;;;6165737;23;20107;-89
2022/01/30 03:21:09;;;;;;;8.02;6.03;;;4.20;99.90;;;;;;6186185;23;20032;-89
2022/01/30 03:23:57;;;;;;;14.23;8.27;;;4.20;99.90;;;;;;6186921;23;20037;-89
2022/01/30 03:26:49;;;;;;;9.10;6.32;;;4.20;99.90;;;;;;6188891;23;20109;-88
2022/01/30 03:29:38;;;;;;;10.02;7.20;;;4.20;99.90;;;;;;6188258;23;20021;-88
2022/01/30 03:32:25;;;;;;;9.73;6.30;;;4.20;99.90;;;;;;6191772;23;20095;-89
2022/01/30 03:35:13;;;;;;;11.85;7.15;;;4.10;99.90;;;;;;6169908;23;20055;-90
2022/01/30 03:38:03;;;;;;;10.40;6.90;;;4.20;99.90;;;;;;6166002;23;20033;-89
2022/01/30 03:40:55;;;;;;;14.52;7.57;;;4.20;99.90;;;;;;6163708;23;20032;-90
2022/01/30 03:43:42;;;;;;;14.00;8.95;;;4.10;99.90;;;;;;6147151;23;20282;-90
2022/01/30 03:46:32;;;;;;;9.90;7.00;;;4.20;99.90;;;;;;6194155;23;20041;-89
2022/01/30 03:49:39;;;;;;;11.88;6.63;;;4.20;99.90;;;;;;6191732;23;20025;-89
2022/01/30 03:52:29;;;;;;;7.93;6.50;;;4.20;99.90;;;;;;6189627;23;20093;-88
2022/01/30 03:55:16;;;;;;;8.45;6.03;;;4.20;99.90;;;;;;6167019;23;20033;-89
2022/01/30 03:58:04;;;;;;;12.73;6.05;;;4.20;99.90;;;;;;6186324;23;20021;-87
2022/01/30 04:00:52;;;;;;;7.90;5.60;;;4.20;99.90;;;;;;6184736;23;20029;-89
2022/01/30 04:03:40;;;;;;;7.20;5.50;;;4.20;99.90;;;;;;6165915;23;20119;-91
2022/01/30 04:06:28;;;;;;;9.02;6.20;;;4.20;99.90;;;;;;6164842;23;20028;-89
2022/01/30 04:09:21;;;;;;;27.35;14.23;;;4.20;99.90;;;;;;6167947;23;20411;-89
2022/01/30 04:12:11;;;;;;;9.98;6.45;;;4.20;99.90;;;;;;6186771;23;20021;-88
2022/01/30 04:15:01;;;;;;;12.40;6.53;;;4.20;99.90;;;;;;6164968;23;20043;-88
2022/01/30 04:17:52;;;;;;;8.27;6.07;;;4.20;99.90;;;;;;6185770;23;20033;-91
2022/01/30 04:20:43;;;;;;;6.10;4.20;;;4.20;99.90;;;;;;6164935;23;20040;-89
2022/01/30 04:23:34;;;;;;;10.45;5.10;;;4.30;99.90;;;;;;6163976;23;20389;-90
2022/01/30 04:26:21;;;;;;;8.05;4.78;;;4.30;99.90;;;;;;6162750;23;20113;-89
2022/01/30 04:29:19;;;;;;;7.03;4.78;;;4.40;99.90;;;;;;6184249;23;20401;-89
2022/01/30 04:32:10;;;;;;;10.85;5.40;;;4.40;99.90;;;;;;6183403;23;20099;-90
2022/01/30 04:34:59;;;;;;;10.52;5.07;;;4.40;99.90;;;;;;6163543;23;20413;-88
2022/01/30 04:41:26;;;;;;;8.48;5.00;;;4.40;99.90;;;;;;6185440;23;20029;-89
2022/01/30 04:54:38;;;;;;;13.30;5.60;;;4.50;99.90;;;;;;6183910;23;20024;-89
2022/01/30 05:04:42;;;;;;;12.40;5.78;;;4.50;99.90;;;;;;6081969;23;20034;-90
2022/01/30 05:08:01;;;;;;;;;;;;;;;;;;;;;
2022/01/30 05:11:12;;;;;;;14.93;7.07;;;4.50;99.90;;;;;;6068816;23;20414;-89
2022/01/30 05:14:20;;;;;;;;;;;;;;;;;;;;;
2022/01/30 05:17:45;;;;;;;20.15;9.35;;;4.50;99.90;;;;;;6089662;23;20073;-88
2022/01/30 05:20:39;;;;;;;;;;;4.50;99.90;;;;;;6154838;23;20131;-89
2022/01/30 05:23:49;;;;;;;29.05;11.75;;;4.50;99.90;;;;;;6178400;23;19928;-88
2022/01/30 05:27:09;;;;;;;;;;;;;;;;;;;;;
2022/01/30 05:30:23;;;;;;;28.88;11.05;;;4.60;99.90;;;;;;6063360;23;20038;-90
2022/01/30 05:33:23;;;;;;;;;;;;;;;;;;;;;
2022/01/30 05:36:16;;;;;;;29.05;10.80;;;4.50;99.90;;;;;;6064644;23;20034;-90
2022/01/30 05:39:21;;;;;;;21.58;10.60;;;4.50;99.90;;;;;;6065263;23;20197;-88
2022/01/30 05:42:28;;;;;;;25.55;10.43;;;4.40;99.90;;;;;;6065521;23;20119;-88
2022/01/30 05:49:15;;;;;;;;;;;;;;;;;;;;;
2022/01/30 05:56:42;;;;;;;;;;;;;;;;;;;;;
2022/01/30 06:00:22;;;;;;;23.38;8.88;;;4.30;99.90;;;;;;5876307;24;20030;-90
2022/01/30 06:04:05;;;;;;;25.27;9.00;;;4.30;99.90;;;;;;5849299;24;20046;-89
2022/01/30 06:07:29;;;;;;;25.08;8.95;;;4.30;99.90;;;;;;5897282;24;20038;-90
2022/01/30 06:10:57;;;;;;;26.60;8.40;;;4.30;99.90;;;;;;5897962;24;20080;-90
2022/01/30 06:14:35;;;;;;;;;;;;;;;;;;;;;
2022/01/30 06:17:59;;;;;;;20.75;7.10;;;4.30;99.90;;;;;;5871020;24;20168;-91
2022/01/30 06:22:01;;;;;;;20.55;7.53;;;4.30;99.90;;;;;;5871331;24;20048;-89
2022/01/30 06:25:45;;;;;;;;;;;;;;;;;;;;;
2022/01/30 06:28:45;;;;;;;28.20;6.85;;;4.20;99.90;;;;;;5923673;24;20037;-88
2022/01/30 06:31:47;;;;;;;21.30;6.30;;;4.20;99.90;;;;;;5926486;24;20033;-89
2022/01/30 06:35:01;;;;;;;21.73;6.10;;;4.20;99.90;;;;;;5816624;24;20141;-90
2022/01/30 06:38:24;;;;;;;17.08;5.38;;;4.20;99.90;;;;;;5924776;24;20044;-91
2022/01/30 06:54:19;;;;;;;23.83;4.95;;;4.10;99.90;;;;;;6055320;23;20029;-89
2022/01/30 07:05:23;;;;;;;22.27;5.70;;;4.00;99.90;;;;;;6185978;23;20048;-88
2022/01/30 07:08:11;;;;;;;34.67;5.85;;;4.00;99.90;;;;;;6184487;23;20051;-86
2022/01/30 07:11:15;;;;;;;23.83;6.07;;;4.00;99.90;;;;;;6185935;23;20037;-89
2022/01/30 07:14:21;;;;;;;22.10;5.43;;;3.90;99.90;;;;;;6194734;23;20013;-89
2022/01/30 07:17:10;;;;;;;19.63;5.30;;;3.90;99.90;;;;;;6216768;23;20032;-88
2022/01/30 07:29:26;;;;;;;23.08;5.90;;;3.90;99.90;;;;;;5994296;24;20053;-90
2022/01/30 07:32:27;;;;;;;22.48;6.38;;;3.90;99.90;;;;;;6063341;23;20134;-90
2022/01/30 07:35:17;;;;;;;27.98;7.22;;;4.00;99.90;;;;;;6204237;23;20082;-88
2022/01/30 07:38:12;;;;;;;26.15;6.32;;;4.00;99.90;;;;;;6210622;23;20060;-89
2022/01/30 07:41:00;;;;;;;23.88;6.30;;;4.00;99.90;;;;;;6195549;23;20024;-89
2022/01/30 07:43:50;;;;;;;18.73;7.18;;;4.00;99.90;;;;;;6194479;23;20052;-88
2022/01/30 07:46:58;;;;;;;14.98;5.82;;;4.00;99.90;;;;;;6215097;23;20028;-91
2022/01/30 07:49:51;;;;;;;28.42;7.32;;;4.00;99.90;;;;;;6215320;23;20066;-90
2022/01/30 07:52:42;;;;;;;23.65;7.07;;;4.10;99.90;;;;;;6192027;23;20105;-90
2022/01/30 07:55:29;;;;;;;18.75;6.68;;;4.10;99.90;;;;;;6193703;23;20028;-88
2022/01/30 07:58:16;;;;;;;27.67;7.35;;;4.10;99.90;;;;;;6192971;23;20032;-87
2022/01/30 08:01:09;;;;;;;20.23;5.82;;;4.10;99.90;;;;;;6213966;23;20021;-90
2022/01/30 08:04:07;;;;;;;23.80;6.05;;;4.20;99.90;;;;;;6194036;23;20039;-86
2022/01/30 08:07:00;;;;;;;23.42;6.20;;;4.20;99.90;;;;;;6213779;23;20035;-88
2022/01/30 08:10:08;;;;;;;24.15;6.85;;;4.20;99.90;;;;;;6216141;23;20128;-90
2022/01/30 08:13:19;;;;;;;30.83;7.03;;;4.20;99.90;;;;;;6214911;23;20017;-89
2022/01/30 08:16:20;;;;;;;24.98;6.60;;;4.20;99.90;;;;;;6217565;23;20048;-91
2022/01/30 08:19:15;;;;;;;19.33;5.30;;;4.20;99.90;;;;;;6194438;23;20058;-88
2022/01/30 08:22:03;;;;;;;20.08;6.95;;;4.20;99.90;;;;;;6192300;23;20024;-90
2022/01/30 08:25:08;;;;;;;17.65;5.57;;;4.20;99.90;;;;;;6217856;23;20036;-91
2022/01/30 08:28:03;;;;;;;23.58;5.90;;;4.20;99.90;;;;;;6196216;23;20477;-90
2022/01/30 08:30:51;;;;;;;25.08;5.75;;;4.30;99.90;;;;;;6215943;23;20074;-88
2022/01/30 08:33:59;;;;;;;19.95;5.82;;;4.40;99.90;;;;;;6193763;23;20028;-90
2022/01/30 08:37:41;;;;;;;;;;;;;;;;;;;;;
2022/01/30 08:54:41;;;;;;;;;;;;;;;;;;;;;
2022/01/30 09:32:33;;;;;;;20.08;3.63;;;6.70;99.90;;;;;;6228142;23;20163;-92
2022/01/30 12:07:20;;;;;;;15.07;3.90;;;6.80;92.10;;;;;;5846898;24;20105;-94
2022/01/30 12:14:34;;;;;;;;;;;;;;;;;;;;;
2022/01/30 12:21:40;;;;;;;13.20;3.80;;;7.20;91.10;;;;;;5935525;24;20358;-90
2022/01/30 12:36:52;;;;;;;;;;;;;;;;;;;;;
2022/01/30 12:43:32;;;;;;;11.40;2.85;;;16.90;51.90;;;;;;6041889;23;20102;-93
2022/01/30 12:48:07;;;;;;;;;;;;;;;;;;;;;
2022/01/30 12:50:57;;;;;;;14.18;3.53;;;13.10;55.60;;;;;;6149195;23;20037;-90
2022/01/30 12:58:50;;;;;;;11.43;3.28;;;13.10;56.80;;;;;;6045068;23;20027;-91
2022/01/30 13:02:36;;;;;;;;;;;;;;;;;;;;;
2022/01/30 13:05:49;;;;;;;;;;;14.20;53.70;;;;;;5979535;24;20039;-90
2022/01/30 13:09:22;;;;;;;;;;;;;;;;;;;;;
2022/01/30 13:12:42;;;;;;;16.38;3.92;;;10.50;63.50;;;;;;6019284;23;20031;-90
2022/01/30 13:16:13;;;;;;;;;;;;;;;;;;;;;
2022/01/30 14:47:09;;;;;;;14.93;4.25;;;7.10;74.80;;;;;;6130063;23;20427;-92
2022/01/30 14:49:56;;;;;;;16.20;3.78;;;6.70;78.50;;;;;;6139670;23;20029;-87
2022/01/30 19:15:17;;;;;;;33.25;12.55;;;1.30;99.90;;;;;;6112035;23;20050;-90
2022/01/30 19:39:21;;;;;;;26.35;10.57;;;1.00;99.90;;;;;;6111578;23;20006;-89
2022/01/30 19:55:37;;;;;;;;;;;;;;;;;;;;;
